KSCH/SCH METAR and TAF weather

Enter ICAO airport designator
Station Type Date Time Source
KSCH METAR 2019/11/22 00:53 UTC NOAA

KSCH 220053Z 02004KT 10SM CLR 02/01 A2999


Station Type Date Time Source
KSCH Decoded METAR 2019/11/22 00:53 UTC NOAA

Schenectady Airport, NY, United States (KSCH) 42-51N 073-56W
Nov 21, 2019 - 07:53 PM EST / 2019.11.22 0053 UTC
Wind: from the NNE (020 degrees) at 5 MPH (4 KT):0
Visibility: 10 mile(s):0
Sky conditions: clear
Temperature: 35 F (2 C)
Windchill: 30 F (-1 C):1
Dew Point: 33 F (1 C)
Relative Humidity: 93%
Pressure (altimeter): 29.99 in. Hg (1015 hPa)
ob: KSCH 220053Z 02004KT 10SM CLR 02/01 A2999
cycle: 1

Station Type Date Time Source
KSCH TAF UTC NOAA

Error!

Example: see airport list